sensor_id;sensor_type;location;lat;lon;timestamp;P1;durP1;ratioP1;P2;durP2;ratioP2
73331;SDS011;61560;33.718;73.040;2022-11-18T00:01:18;13.63;;;5.75;;
73331;SDS011;61560;33.718;73.040;2022-11-18T00:03:50;15.93;;;6.82;;
73331;SDS011;61560;33.718;73.040;2022-11-18T00:06:18;16.42;;;6.28;;
73331;SDS011;61560;33.718;73.040;2022-11-18T00:08:49;11.75;;;5.75;;
73331;SDS011;61560;33.718;73.040;2022-11-18T00:11:18;11.02;;;5.38;;
73331;SDS011;61560;33.718;73.040;2022-11-18T00:14:12;12.73;;;5.60;;
73331;SDS011;61560;33.718;73.040;2022-11-18T00:16:46;11.95;;;4.97;;
73331;SDS011;61560;33.718;73.040;2022-11-18T00:19:32;11.00;;;4.63;;
73331;SDS011;61560;33.718;73.040;2022-11-18T00:22:01;12.02;;;4.90;;
73331;SDS011;61560;33.718;73.040;2022-11-18T00:24:29;12.23;;;5.53;;
73331;SDS011;61560;33.718;73.040;2022-11-18T00:26:57;15.52;;;6.35;;
73331;SDS011;61560;33.718;73.040;2022-11-18T00:29:24;12.75;;;5.88;;
73331;SDS011;61560;33.718;73.040;2022-11-18T00:31:53;14.88;;;5.72;;
73331;SDS011;61560;33.718;73.040;2022-11-18T00:34:22;12.95;;;5.55;;
73331;SDS011;61560;33.718;73.040;2022-11-18T00:36:50;12.75;;;5.38;;
73331;SDS011;61560;33.718;73.040;2022-11-18T00:39:17;11.13;;;5.10;;
73331;SDS011;61560;33.718;73.040;2022-11-18T00:41:45;12.18;;;5.15;;
73331;SDS011;61560;33.718;73.040;2022-11-18T00:44:31;12.90;;;5.63;;
73331;SDS011;61560;33.718;73.040;2022-11-18T00:46:58;10.93;;;5.47;;
73331;SDS011;61560;33.718;73.040;2022-11-18T00:49:26;8.40;;;4.72;;
73331;SDS011;61560;33.718;73.040;2022-11-18T00:51:53;10.93;;;4.85;;
73331;SDS011;61560;33.718;73.040;2022-11-18T00:54:20;14.02;;;4.95;;
73331;SDS011;61560;33.718;73.040;2022-11-18T00:56:47;13.63;;;5.00;;
73331;SDS011;61560;33.718;73.040;2022-11-18T00:59:17;10.02;;;4.88;;
73331;SDS011;61560;33.718;73.040;2022-11-18T01:01:44;10.25;;;5.10;;
73331;SDS011;61560;33.718;73.040;2022-11-18T01:04:12;12.10;;;5.10;;
73331;SDS011;61560;33.718;73.040;2022-11-18T01:06:39;11.48;;;5.07;;
73331;SDS011;61560;33.718;73.040;2022-11-18T01:09:06;10.80;;;4.65;;
73331;SDS011;61560;33.718;73.040;2022-11-18T01:11:33;10.32;;;4.63;;
73331;SDS011;61560;33.718;73.040;2022-11-18T01:14:19;10.57;;;4.95;;
73331;SDS011;61560;33.718;73.040;2022-11-18T01:16:46;10.05;;;4.53;;
73331;SDS011;61560;33.718;73.040;2022-11-18T01:19:16;10.73;;;4.43;;
73331;SDS011;61560;33.718;73.040;2022-11-18T01:21:43;11.40;;;5.00;;
73331;SDS011;61560;33.718;73.040;2022-11-18T01:24:11;11.18;;;5.07;;
73331;SDS011;61560;33.718;73.040;2022-11-18T01:26:38;9.13;;;4.68;;
73331;SDS011;61560;33.718;73.040;2022-11-18T01:29:05;12.65;;;5.80;;
73331;SDS011;61560;33.718;73.040;2022-11-18T01:31:32;14.63;;;5.97;;
73331;SDS011;61560;33.718;73.040;2022-11-18T01:33:59;13.98;;;5.25;;
73331;SDS011;61560;33.718;73.040;2022-11-18T01:36:26;18.48;;;6.13;;
73331;SDS011;61560;33.718;73.040;2022-11-18T01:38:54;18.15;;;6.55;;
73331;SDS011;61560;33.718;73.040;2022-11-18T01:41:23;13.02;;;5.40;;
73331;SDS011;61560;33.718;73.040;2022-11-18T01:43:59;13.60;;;5.20;;
73331;SDS011;61560;33.718;73.040;2022-11-18T01:46:30;14.25;;;5.43;;
73331;SDS011;61560;33.718;73.040;2022-11-18T01:49:00;14.40;;;5.35;;
73331;SDS011;61560;33.718;73.040;2022-11-18T01:51:32;16.70;;;6.30;;
73331;SDS011;61560;33.718;73.040;2022-11-18T01:54:07;19.40;;;5.45;;
73331;SDS011;61560;33.718;73.040;2022-11-18T01:56:41;16.85;;;6.03;;
73331;SDS011;61560;33.718;73.040;2022-11-18T01:59:17;13.50;;;5.90;;
73331;SDS011;61560;33.718;73.040;2022-11-18T02:01:47;16.88;;;6.03;;
73331;SDS011;61560;33.718;73.040;2022-11-18T02:04:14;21.30;;;7.03;;
73331;SDS011;61560;33.718;73.040;2022-11-18T02:06:42;15.18;;;7.25;;
73331;SDS011;61560;33.718;73.040;2022-11-18T02:09:13;18.38;;;6.75;;
73331;SDS011;61560;33.718;73.040;2022-11-18T02:11:41;17.63;;;7.78;;
73331;SDS011;61560;33.718;73.040;2022-11-18T02:14:31;21.15;;;8.48;;
73331;SDS011;61560;33.718;73.040;2022-11-18T02:31:22;20.02;;;8.77;;
73331;SDS011;61560;33.718;73.040;2022-11-18T02:36:56;22.63;;;10.20;;
73331;SDS011;61560;33.718;73.040;2022-11-18T02:39:36;27.90;;;9.95;;
73331;SDS011;61560;33.718;73.040;2022-11-18T02:42:06;30.98;;;12.13;;
73331;SDS011;61560;33.718;73.040;2022-11-18T02:44:39;29.40;;;13.75;;
73331;SDS011;61560;33.718;73.040;2022-11-18T02:47:10;28.77;;;14.27;;
73331;SDS011;61560;33.718;73.040;2022-11-18T02:49:41;35.92;;;13.63;;
73331;SDS011;61560;33.718;73.040;2022-11-18T02:52:12;26.60;;;12.43;;
73331;SDS011;61560;33.718;73.040;2022-11-18T02:54:42;24.60;;;11.88;;
73331;SDS011;61560;33.718;73.040;2022-11-18T02:57:12;26.08;;;11.60;;
73331;SDS011;61560;33.718;73.040;2022-11-18T02:59:41;32.38;;;11.68;;
73331;SDS011;61560;33.718;73.040;2022-11-18T03:02:11;27.60;;;11.25;;
73331;SDS011;61560;33.718;73.040;2022-11-18T03:04:42;29.25;;;11.48;;
73331;SDS011;61560;33.718;73.040;2022-11-18T03:07:13;29.15;;;12.15;;
73331;SDS011;61560;33.718;73.040;2022-11-18T03:09:49;24.67;;;12.20;;
73331;SDS011;61560;33.718;73.040;2022-11-18T03:15:30;31.38;;;13.00;;
73331;SDS011;61560;33.718;73.040;2022-11-18T03:18:15;40.80;;;15.95;;
73331;SDS011;61560;33.718;73.040;2022-11-18T03:21:01;41.47;;;15.80;;
73331;SDS011;61560;33.718;73.040;2022-11-18T03:23:54;39.70;;;16.00;;
73331;SDS011;61560;33.718;73.040;2022-11-18T03:26:30;37.05;;;15.48;;
73331;SDS011;61560;33.718;73.040;2022-11-18T03:29:03;38.28;;;15.07;;
73331;SDS011;61560;33.718;73.040;2022-11-18T03:31:44;29.40;;;14.07;;
73331;SDS011;61560;33.718;73.040;2022-11-18T03:37:01;32.55;;;13.93;;
73331;SDS011;61560;33.718;73.040;2022-11-18T03:39:35;36.13;;;13.70;;
73331;SDS011;61560;33.718;73.040;2022-11-18T03:42:18;33.58;;;14.25;;
73331;SDS011;61560;33.718;73.040;2022-11-18T03:45:35;38.78;;;14.70;;
73331;SDS011;61560;33.718;73.040;2022-11-18T03:47:50;31.92;;;14.27;;
73331;SDS011;61560;33.718;73.040;2022-11-18T03:50:54;29.77;;;12.68;;
73331;SDS011;61560;33.718;73.040;2022-11-18T03:53:29;34.63;;;12.30;;
73331;SDS011;61560;33.718;73.040;2022-11-18T03:56:04;29.23;;;11.75;;
73331;SDS011;61560;33.718;73.040;2022-11-18T03:58:45;27.73;;;13.02;;
73331;SDS011;61560;33.718;73.040;2022-11-18T04:01:34;32.50;;;13.20;;
73331;SDS011;61560;33.718;73.040;2022-11-18T04:04:24;34.35;;;13.68;;
73331;SDS011;61560;33.718;73.040;2022-11-18T04:09:25;29.33;;;14.18;;
73331;SDS011;61560;33.718;73.040;2022-11-18T04:12:02;33.25;;;13.98;;
73331;SDS011;61560;33.718;73.040;2022-11-18T04:14:37;42.60;;;15.13;;
73331;SDS011;61560;33.718;73.040;2022-11-18T04:17:11;35.20;;;15.02;;
73331;SDS011;61560;33.718;73.040;2022-11-18T04:19:42;39.97;;;15.90;;
73331;SDS011;61560;33.718;73.040;2022-11-18T04:22:09;33.55;;;15.00;;
73331;SDS011;61560;33.718;73.040;2022-11-18T04:24:36;40.90;;;16.00;;
73331;SDS011;61560;33.718;73.040;2022-11-18T04:27:04;37.00;;;15.15;;
73331;SDS011;61560;33.718;73.040;2022-11-18T04:29:32;38.90;;;17.02;;
73331;SDS011;61560;33.718;73.040;2022-11-18T04:31:59;39.42;;;16.67;;
73331;SDS011;61560;33.718;73.040;2022-11-18T04:34:27;43.58;;;17.27;;
73331;SDS011;61560;33.718;73.040;2022-11-18T04:36:55;36.88;;;16.65;;
73331;SDS011;61560;33.718;73.040;2022-11-18T04:39:23;39.10;;;15.27;;
73331;SDS011;61560;33.718;73.040;2022-11-18T04:41:50;35.15;;;15.57;;
73331;SDS011;61560;33.718;73.040;2022-11-18T04:44:21;32.00;;;14.80;;
73331;SDS011;61560;33.718;73.040;2022-11-18T04:46:54;40.22;;;16.35;;
73331;SDS011;61560;33.718;73.040;2022-11-18T04:49:22;38.17;;;16.38;;
73331;SDS011;61560;33.718;73.040;2022-11-18T04:51:51;33.17;;;14.48;;
73331;SDS011;61560;33.718;73.040;2022-11-18T04:54:18;33.67;;;14.65;;
73331;SDS011;61560;33.718;73.040;2022-11-18T04:56:46;35.53;;;14.10;;
73331;SDS011;61560;33.718;73.040;2022-11-18T04:59:14;32.17;;;13.57;;
73331;SDS011;61560;33.718;73.040;2022-11-18T05:01:43;35.83;;;14.35;;
73331;SDS011;61560;33.718;73.040;2022-11-18T05:04:14;29.63;;;14.23;;
73331;SDS011;61560;33.718;73.040;2022-11-18T05:06:43;28.85;;;13.88;;
73331;SDS011;61560;33.718;73.040;2022-11-18T05:09:10;33.38;;;13.52;;
73331;SDS011;61560;33.718;73.040;2022-11-18T05:11:38;29.98;;;13.98;;
73331;SDS011;61560;33.718;73.040;2022-11-18T05:14:26;30.75;;;13.82;;
73331;SDS011;61560;33.718;73.040;2022-11-18T05:16:55;31.67;;;13.75;;
73331;SDS011;61560;33.718;73.040;2022-11-18T05:19:23;37.63;;;13.65;;
73331;SDS011;61560;33.718;73.040;2022-11-18T05:21:51;23.85;;;11.75;;
73331;SDS011;61560;33.718;73.040;2022-11-18T05:24:18;30.63;;;14.38;;
73331;SDS011;61560;33.718;73.040;2022-11-18T05:26:47;26.45;;;12.93;;
73331;SDS011;61560;33.718;73.040;2022-11-18T05:29:14;24.20;;;12.60;;
73331;SDS011;61560;33.718;73.040;2022-11-18T05:31:42;32.80;;;14.23;;
73331;SDS011;61560;33.718;73.040;2022-11-18T05:34:09;31.40;;;13.50;;
73331;SDS011;61560;33.718;73.040;2022-11-18T05:36:37;24.80;;;12.50;;
73331;SDS011;61560;33.718;73.040;2022-11-18T05:39:04;25.00;;;12.18;;
73331;SDS011;61560;33.718;73.040;2022-11-18T05:41:31;27.05;;;12.10;;
73331;SDS011;61560;33.718;73.040;2022-11-18T05:44:16;29.58;;;12.02;;
73331;SDS011;61560;33.718;73.040;2022-11-18T05:46:43;25.98;;;12.10;;
73331;SDS011;61560;33.718;73.040;2022-11-18T05:49:10;29.30;;;13.25;;
73331;SDS011;61560;33.718;73.040;2022-11-18T05:51:37;28.70;;;13.15;;
73331;SDS011;61560;33.718;73.040;2022-11-18T05:54:06;23.60;;;11.25;;
73331;SDS011;61560;33.718;73.040;2022-11-18T05:56:36;26.02;;;12.75;;
73331;SDS011;61560;33.718;73.040;2022-11-18T05:59:12;23.95;;;12.07;;
73331;SDS011;61560;33.718;73.040;2022-11-18T06:01:55;23.92;;;11.68;;
73331;SDS011;61560;33.718;73.040;2022-11-18T06:04:29;28.77;;;12.13;;
73331;SDS011;61560;33.718;73.040;2022-11-18T06:07:13;33.22;;;11.98;;
73331;SDS011;61560;33.718;73.040;2022-11-18T06:09:48;27.77;;;12.40;;
73331;SDS011;61560;33.718;73.040;2022-11-18T06:12:21;27.25;;;12.48;;
73331;SDS011;61560;33.718;73.040;2022-11-18T06:14:53;28.45;;;12.60;;
73331;SDS011;61560;33.718;73.040;2022-11-18T06:17:45;23.83;;;11.48;;
73331;SDS011;61560;33.718;73.040;2022-11-18T06:20:12;28.05;;;12.73;;
73331;SDS011;61560;33.718;73.040;2022-11-18T06:22:39;28.17;;;11.50;;
73331;SDS011;61560;33.718;73.040;2022-11-18T06:25:07;27.00;;;12.70;;
73331;SDS011;61560;33.718;73.040;2022-11-18T06:27:34;27.58;;;12.07;;
73331;SDS011;61560;33.718;73.040;2022-11-18T06:30:02;35.58;;;13.95;;
73331;SDS011;61560;33.718;73.040;2022-11-18T06:32:29;33.88;;;14.40;;
73331;SDS011;61560;33.718;73.040;2022-11-18T06:34:56;29.70;;;13.90;;
73331;SDS011;61560;33.718;73.040;2022-11-18T06:37:23;37.38;;;14.10;;
73331;SDS011;61560;33.718;73.040;2022-11-18T06:39:50;37.13;;;14.65;;
73331;SDS011;61560;33.718;73.040;2022-11-18T06:42:17;32.40;;;14.18;;
73331;SDS011;61560;33.718;73.040;2022-11-18T06:45:03;31.15;;;14.15;;
73331;SDS011;61560;33.718;73.040;2022-11-18T06:47:30;29.08;;;13.55;;
73331;SDS011;61560;33.718;73.040;2022-11-18T06:49:58;32.92;;;14.35;;
73331;SDS011;61560;33.718;73.040;2022-11-18T06:52:25;28.20;;;12.73;;
73331;SDS011;61560;33.718;73.040;2022-11-18T06:54:52;28.20;;;13.18;;
73331;SDS011;61560;33.718;73.040;2022-11-18T06:57:19;31.95;;;14.30;;
73331;SDS011;61560;33.718;73.040;2022-11-18T06:59:47;24.92;;;12.20;;
73331;SDS011;61560;33.718;73.040;2022-11-18T07:02:14;39.80;;;14.27;;
73331;SDS011;61560;33.718;73.040;2022-11-18T07:04:44;27.20;;;12.75;;
73331;SDS011;61560;33.718;73.040;2022-11-18T07:07:11;35.22;;;14.85;;
73331;SDS011;61560;33.718;73.040;2022-11-18T07:09:39;38.05;;;14.90;;
73331;SDS011;61560;33.718;73.040;2022-11-18T07:12:05;43.28;;;14.05;;
73331;SDS011;61560;33.718;73.040;2022-11-18T07:14:33;35.22;;;13.93;;
73331;SDS011;61560;33.718;73.040;2022-11-18T07:17:00;38.08;;;14.75;;
73331;SDS011;61560;33.718;73.040;2022-11-18T07:19:27;30.65;;;13.40;;
73331;SDS011;61560;33.718;73.040;2022-11-18T07:21:54;28.05;;;12.68;;
73331;SDS011;61560;33.718;73.040;2022-11-18T07:24:21;35.90;;;15.27;;
73331;SDS011;61560;33.718;73.040;2022-11-18T07:26:48;35.22;;;14.75;;
73331;SDS011;61560;33.718;73.040;2022-11-18T07:29:15;31.17;;;13.63;;
73331;SDS011;61560;33.718;73.040;2022-11-18T07:31:42;36.35;;;14.40;;
73331;SDS011;61560;33.718;73.040;2022-11-18T07:34:10;38.55;;;14.98;;
73331;SDS011;61560;33.718;73.040;2022-11-18T07:36:38;41.97;;;15.60;;
73331;SDS011;61560;33.718;73.040;2022-11-18T07:39:05;28.63;;;13.88;;
73331;SDS011;61560;33.718;73.040;2022-11-18T07:41:33;30.80;;;14.88;;
73331;SDS011;61560;33.718;73.040;2022-11-18T07:44:01;34.67;;;14.18;;
73331;SDS011;61560;33.718;73.040;2022-11-18T07:46:30;34.67;;;15.02;;
73331;SDS011;61560;33.718;73.040;2022-11-18T07:49:00;35.78;;;15.23;;
73331;SDS011;61560;33.718;73.040;2022-11-18T07:51:29;37.15;;;14.02;;
73331;SDS011;61560;33.718;73.040;2022-11-18T07:54:10;28.65;;;12.82;;
73331;SDS011;61560;33.718;73.040;2022-11-18T07:56:39;38.13;;;15.40;;
73331;SDS011;61560;33.718;73.040;2022-11-18T07:59:06;36.03;;;15.48;;
73331;SDS011;61560;33.718;73.040;2022-11-18T08:01:36;31.65;;;15.30;;
73331;SDS011;61560;33.718;73.040;2022-11-18T08:04:05;30.58;;;14.35;;
73331;SDS011;61560;33.718;73.040;2022-11-18T08:06:36;32.08;;;13.82;;
73331;SDS011;61560;33.718;73.040;2022-11-18T08:09:04;25.02;;;12.38;;
73331;SDS011;61560;33.718;73.040;2022-11-18T08:11:32;25.10;;;12.52;;
73331;SDS011;61560;33.718;73.040;2022-11-18T08:13:59;33.10;;;13.88;;
73331;SDS011;61560;33.718;73.040;2022-11-18T08:16:27;28.30;;;13.43;;
73331;SDS011;61560;33.718;73.040;2022-11-18T08:18:54;36.13;;;13.40;;
73331;SDS011;61560;33.718;73.040;2022-11-18T08:21:22;28.90;;;13.13;;
73331;SDS011;61560;33.718;73.040;2022-11-18T08:23:50;24.52;;;12.13;;
73331;SDS011;61560;33.718;73.040;2022-11-18T08:26:22;31.73;;;14.68;;
73331;SDS011;61560;33.718;73.040;2022-11-18T08:28:49;34.15;;;14.40;;
73331;SDS011;61560;33.718;73.040;2022-11-18T08:31:21;38.67;;;14.88;;
73331;SDS011;61560;33.718;73.040;2022-11-18T08:33:57;32.25;;;14.02;;
73331;SDS011;61560;33.718;73.040;2022-11-18T08:36:27;30.80;;;13.95;;
73331;SDS011;61560;33.718;73.040;2022-11-18T08:38:58;30.88;;;13.98;;
73331;SDS011;61560;33.718;73.040;2022-11-18T08:41:33;31.10;;;14.02;;
73331;SDS011;61560;33.718;73.040;2022-11-18T08:44:10;30.67;;;13.77;;
73331;SDS011;61560;33.718;73.040;2022-11-18T08:46:39;31.67;;;14.10;;
73331;SDS011;61560;33.718;73.040;2022-11-18T08:49:07;32.08;;;13.85;;
73331;SDS011;61560;33.718;73.040;2022-11-18T08:51:34;30.38;;;14.13;;
73331;SDS011;61560;33.718;73.040;2022-11-18T08:54:01;30.60;;;14.10;;
73331;SDS011;61560;33.718;73.040;2022-11-18T08:56:28;28.48;;;13.48;;
73331;SDS011;61560;33.718;73.040;2022-11-18T08:58:55;31.60;;;13.38;;
73331;SDS011;61560;33.718;73.040;2022-11-18T09:01:22;33.95;;;15.88;;
73331;SDS011;61560;33.718;73.040;2022-11-18T09:03:51;31.13;;;13.85;;
73331;SDS011;61560;33.718;73.040;2022-11-18T09:06:19;32.38;;;14.23;;
73331;SDS011;61560;33.718;73.040;2022-11-18T09:08:49;28.52;;;13.48;;
73331;SDS011;61560;33.718;73.040;2022-11-18T09:11:17;26.88;;;12.60;;
73331;SDS011;61560;33.718;73.040;2022-11-18T09:13:50;31.75;;;13.60;;
73331;SDS011;61560;33.718;73.040;2022-11-18T09:16:23;36.20;;;14.85;;
73331;SDS011;61560;33.718;73.040;2022-11-18T09:18:51;30.40;;;13.38;;
73331;SDS011;61560;33.718;73.040;2022-11-18T09:21:19;30.65;;;13.18;;
73331;SDS011;61560;33.718;73.040;2022-11-18T09:23:46;33.00;;;13.48;;
73331;SDS011;61560;33.718;73.040;2022-11-18T09:26:15;36.70;;;16.05;;
73331;SDS011;61560;33.718;73.040;2022-11-18T09:28:46;39.72;;;15.68;;
73331;SDS011;61560;33.718;73.040;2022-11-18T09:31:14;40.92;;;16.25;;
73331;SDS011;61560;33.718;73.040;2022-11-18T09:33:43;37.63;;;15.55;;
73331;SDS011;61560;33.718;73.040;2022-11-18T09:36:20;41.38;;;17.58;;
73331;SDS011;61560;33.718;73.040;2022-11-18T09:38:49;34.38;;;15.27;;
73331;SDS011;61560;33.718;73.040;2022-11-18T09:41:35;35.90;;;15.10;;
73331;SDS011;61560;33.718;73.040;2022-11-18T09:49:56;29.55;;;13.52;;
73331;SDS011;61560;33.718;73.040;2022-11-18T09:52:40;28.10;;;12.95;;
73331;SDS011;61560;33.718;73.040;2022-11-18T09:55:28;34.40;;;13.48;;
73331;SDS011;61560;33.718;73.040;2022-11-18T09:57:57;34.45;;;15.40;;
73331;SDS011;61560;33.718;73.040;2022-11-18T10:00:26;40.10;;;16.33;;
73331;SDS011;61560;33.718;73.040;2022-11-18T10:03:02;30.30;;;13.63;;
73331;SDS011;61560;33.718;73.040;2022-11-18T10:11:17;30.27;;;14.55;;
73331;SDS011;61560;33.718;73.040;2022-11-18T10:22:38;34.30;;;14.90;;
73331;SDS011;61560;33.718;73.040;2022-11-18T10:24:56;36.05;;;15.65;;
73331;SDS011;61560;33.718;73.040;2022-11-18T10:27:26;37.22;;;16.15;;
73331;SDS011;61560;33.718;73.040;2022-11-18T10:30:05;30.83;;;14.70;;
73331;SDS011;61560;33.718;73.040;2022-11-18T10:32:54;40.80;;;16.70;;
73331;SDS011;61560;33.718;73.040;2022-11-18T10:35:34;36.15;;;15.50;;
73331;SDS011;61560;33.718;73.040;2022-11-18T10:38:05;33.95;;;15.80;;
73331;SDS011;61560;33.718;73.040;2022-11-18T10:40:32;28.80;;;13.70;;
73331;SDS011;61560;33.718;73.040;2022-11-18T10:43:03;37.38;;;14.93;;
73331;SDS011;61560;33.718;73.040;2022-11-18T10:45:30;32.05;;;14.77;;
73331;SDS011;61560;33.718;73.040;2022-11-18T10:48:01;41.22;;;17.05;;
73331;SDS011;61560;33.718;73.040;2022-11-18T10:50:38;41.17;;;17.25;;
73331;SDS011;61560;33.718;73.040;2022-11-18T10:53:27;47.03;;;17.83;;
73331;SDS011;61560;33.718;73.040;2022-11-18T10:58:34;37.42;;;15.80;;
73331;SDS011;61560;33.718;73.040;2022-11-18T11:01:07;35.05;;;15.77;;
73331;SDS011;61560;33.718;73.040;2022-11-18T11:06:45;36.13;;;15.30;;
73331;SDS011;61560;33.718;73.040;2022-11-18T11:11:40;39.35;;;17.35;;
73331;SDS011;61560;33.718;73.040;2022-11-18T11:17:09;45.20;;;18.48;;
73331;SDS011;61560;33.718;73.040;2022-11-18T11:22:16;40.42;;;16.63;;
73331;SDS011;61560;33.718;73.040;2022-11-18T11:24:43;45.70;;;18.27;;
73331;SDS011;61560;33.718;73.040;2022-11-18T11:30:29;34.33;;;16.10;;
73331;SDS011;61560;33.718;73.040;2022-11-18T11:33:08;38.17;;;16.33;;
73331;SDS011;61560;33.718;73.040;2022-11-18T11:38:34;36.00;;;15.45;;
73331;SDS011;61560;33.718;73.040;2022-11-18T11:41:06;34.75;;;14.18;;
73331;SDS011;61560;33.718;73.040;2022-11-18T11:46:17;42.78;;;16.10;;
73331;SDS011;61560;33.718;73.040;2022-11-18T11:51:48;34.58;;;15.35;;
73331;SDS011;61560;33.718;73.040;2022-11-18T12:02:39;31.88;;;13.70;;
73331;SDS011;61560;33.718;73.040;2022-11-18T12:07:52;36.45;;;15.07;;
73331;SDS011;61560;33.718;73.040;2022-11-18T12:18:42;47.25;;;25.70;;
73331;SDS011;61560;33.718;73.040;2022-11-18T12:26:49;44.30;;;19.23;;
73331;SDS011;61560;33.718;73.040;2022-11-18T12:31:51;36.20;;;17.60;;
73331;SDS011;61560;33.718;73.040;2022-11-18T12:36:53;41.17;;;17.65;;
73331;SDS011;61560;33.718;73.040;2022-11-18T12:51:01;49.05;;;17.15;;
73331;SDS011;61560;33.718;73.040;2022-11-18T12:53:44;44.55;;;17.52;;
73331;SDS011;61560;33.718;73.040;2022-11-18T12:58:58;42.78;;;17.00;;
73331;SDS011;61560;33.718;73.040;2022-11-18T13:01:28;44.13;;;16.65;;
73331;SDS011;61560;33.718;73.040;2022-11-18T13:04:06;43.05;;;17.77;;
73331;SDS011;61560;33.718;73.040;2022-11-18T13:06:36;50.78;;;19.00;;
73331;SDS011;61560;33.718;73.040;2022-11-18T13:09:04;49.75;;;19.48;;
73331;SDS011;61560;33.718;73.040;2022-11-18T13:11:44;45.88;;;19.35;;
73331;SDS011;61560;33.718;73.040;2022-11-18T13:14:17;49.15;;;20.45;;
73331;SDS011;61560;33.718;73.040;2022-11-18T13:17:28;47.25;;;19.80;;
73331;SDS011;61560;33.718;73.040;2022-11-18T13:20:32;51.88;;;18.88;;
73331;SDS011;61560;33.718;73.040;2022-11-18T13:23:43;43.38;;;19.15;;
73331;SDS011;61560;33.718;73.040;2022-11-18T13:26:13;46.50;;;19.85;;
73331;SDS011;61560;33.718;73.040;2022-11-18T13:34:57;51.03;;;18.02;;
73331;SDS011;61560;33.718;73.040;2022-11-18T13:37:49;40.58;;;17.40;;
73331;SDS011;61560;33.718;73.040;2022-11-18T13:40:24;44.65;;;18.08;;
73331;SDS011;61560;33.718;73.040;2022-11-18T13:42:51;37.30;;;16.60;;
73331;SDS011;61560;33.718;73.040;2022-11-18T13:45:18;43.33;;;16.40;;
73331;SDS011;61560;33.718;73.040;2022-11-18T13:48:00;43.05;;;17.60;;
73331;SDS011;61560;33.718;73.040;2022-11-18T13:50:35;52.13;;;18.42;;
73331;SDS011;61560;33.718;73.040;2022-11-18T13:58:35;35.92;;;17.15;;
73331;SDS011;61560;33.718;73.040;2022-11-18T14:01:26;43.47;;;18.17;;
73331;SDS011;61560;33.718;73.040;2022-11-18T14:04:02;42.38;;;17.15;;
73331;SDS011;61560;33.718;73.040;2022-11-18T14:06:34;46.35;;;17.30;;
73331;SDS011;61560;33.718;73.040;2022-11-18T14:12:05;37.85;;;16.02;;
73331;SDS011;61560;33.718;73.040;2022-11-18T14:14:34;38.15;;;17.05;;
73331;SDS011;61560;33.718;73.040;2022-11-18T14:17:23;35.63;;;15.55;;
73331;SDS011;61560;33.718;73.040;2022-11-18T14:19:54;41.05;;;15.55;;
73331;SDS011;61560;33.718;73.040;2022-11-18T14:22:23;31.48;;;14.38;;
73331;SDS011;61560;33.718;73.040;2022-11-18T14:24:53;36.60;;;16.98;;
73331;SDS011;61560;33.718;73.040;2022-11-18T14:27:35;45.90;;;16.92;;
73331;SDS011;61560;33.718;73.040;2022-11-18T14:35:50;31.73;;;14.20;;
73331;SDS011;61560;33.718;73.040;2022-11-18T14:38:21;43.38;;;16.27;;
73331;SDS011;61560;33.718;73.040;2022-11-18T14:40:55;36.58;;;14.43;;
73331;SDS011;61560;33.718;73.040;2022-11-18T14:45:54;30.75;;;14.07;;
73331;SDS011;61560;33.718;73.040;2022-11-18T14:48:33;30.85;;;14.55;;
73331;SDS011;61560;33.718;73.040;2022-11-18T14:51:00;37.65;;;16.05;;
73331;SDS011;61560;33.718;73.040;2022-11-18T14:53:27;40.85;;;17.00;;
73331;SDS011;61560;33.718;73.040;2022-11-18T14:55:55;41.63;;;17.83;;
73331;SDS011;61560;33.718;73.040;2022-11-18T14:58:24;41.70;;;18.83;;
73331;SDS011;61560;33.718;73.040;2022-11-18T15:00:51;50.17;;;17.48;;
73331;SDS011;61560;33.718;73.040;2022-11-18T15:03:19;50.33;;;21.00;;
73331;SDS011;61560;33.718;73.040;2022-11-18T15:05:46;103.22;;;38.63;;
73331;SDS011;61560;33.718;73.040;2022-11-18T15:08:14;159.35;;;65.90;;
73331;SDS011;61560;33.718;73.040;2022-11-18T15:10:41;116.05;;;49.63;;
73331;SDS011;61560;33.718;73.040;2022-11-18T15:13:08;70.00;;;28.67;;
73331;SDS011;61560;33.718;73.040;2022-11-18T15:15:35;58.58;;;23.95;;
73331;SDS011;61560;33.718;73.040;2022-11-18T15:18:03;51.72;;;22.48;;
73331;SDS011;61560;33.718;73.040;2022-11-18T15:20:30;63.45;;;24.23;;
73331;SDS011;61560;33.718;73.040;2022-11-18T15:22:57;94.72;;;34.97;;
73331;SDS011;61560;33.718;73.040;2022-11-18T15:25:24;77.75;;;31.15;;
73331;SDS011;61560;33.718;73.040;2022-11-18T15:27:53;60.15;;;24.08;;
73331;SDS011;61560;33.718;73.040;2022-11-18T15:32:52;49.20;;;18.05;;
73331;SDS011;61560;33.718;73.040;2022-11-18T15:35:19;47.13;;;18.48;;
73331;SDS011;61560;33.718;73.040;2022-11-18T15:37:46;47.22;;;19.27;;
73331;SDS011;61560;33.718;73.040;2022-11-18T15:40:13;67.18;;;24.73;;
73331;SDS011;61560;33.718;73.040;2022-11-18T15:42:40;59.40;;;24.77;;
73331;SDS011;61560;33.718;73.040;2022-11-18T15:45:07;69.07;;;25.95;;
73331;SDS011;61560;33.718;73.040;2022-11-18T15:47:35;63.47;;;25.58;;
73331;SDS011;61560;33.718;73.040;2022-11-18T15:50:02;62.17;;;24.52;;
73331;SDS011;61560;33.718;73.040;2022-11-18T15:52:29;56.47;;;22.25;;
73331;SDS011;61560;33.718;73.040;2022-11-18T15:54:56;68.80;;;24.17;;
73331;SDS011;61560;33.718;73.040;2022-11-18T15:57:23;57.25;;;23.88;;
73331;SDS011;61560;33.718;73.040;2022-11-18T15:59:50;58.97;;;24.58;;
73331;SDS011;61560;33.718;73.040;2022-11-18T16:02:18;55.20;;;21.83;;
73331;SDS011;61560;33.718;73.040;2022-11-18T16:04:45;44.45;;;20.65;;
73331;SDS011;61560;33.718;73.040;2022-11-18T16:07:15;43.47;;;19.42;;
73331;SDS011;61560;33.718;73.040;2022-11-18T16:09:42;42.35;;;18.23;;
73331;SDS011;61560;33.718;73.040;2022-11-18T16:12:28;45.50;;;17.98;;
73331;SDS011;61560;33.718;73.040;2022-11-18T16:15:14;41.28;;;16.95;;
73331;SDS011;61560;33.718;73.040;2022-11-18T16:18:02;49.50;;;17.35;;
73331;SDS011;61560;33.718;73.040;2022-11-18T16:20:29;42.13;;;16.77;;
73331;SDS011;61560;33.718;73.040;2022-11-18T16:22:56;36.55;;;16.80;;
73331;SDS011;61560;33.718;73.040;2022-11-18T16:25:23;41.08;;;17.45;;
73331;SDS011;61560;33.718;73.040;2022-11-18T16:27:50;38.95;;;17.25;;
73331;SDS011;61560;33.718;73.040;2022-11-18T16:30:17;45.45;;;15.07;;
73331;SDS011;61560;33.718;73.040;2022-11-18T16:33:04;39.95;;;16.33;;
73331;SDS011;61560;33.718;73.040;2022-11-18T16:35:31;33.13;;;15.05;;
73331;SDS011;61560;33.718;73.040;2022-11-18T16:37:58;37.35;;;14.85;;
73331;SDS011;61560;33.718;73.040;2022-11-18T16:40:25;40.15;;;16.08;;
73331;SDS011;61560;33.718;73.040;2022-11-18T16:42:52;33.45;;;14.25;;
73331;SDS011;61560;33.718;73.040;2022-11-18T16:45:19;38.95;;;16.38;;
73331;SDS011;61560;33.718;73.040;2022-11-18T16:47:47;35.95;;;14.77;;
73331;SDS011;61560;33.718;73.040;2022-11-18T16:50:14;31.58;;;13.30;;
73331;SDS011;61560;33.718;73.040;2022-11-18T16:52:41;39.10;;;14.30;;
73331;SDS011;61560;33.718;73.040;2022-11-18T16:55:08;34.17;;;14.90;;
73331;SDS011;61560;33.718;73.040;2022-11-18T16:57:35;41.50;;;15.65;;